^^
Station Historical Data
Daily Summary for November 3, 2017 Units:  Both    English   Metric
« Previous Day
Next Day »
Daily Weekly Monthly Yearly Custom
  High: Low: Average:
Temperature: TemperatureF °F /  -17.8 °C 56.8 °F /  13.8 °C 68 °F /  20 °C
Dew Point: DewpointF °F /  -17.8 °C 50.2 °F /  10.1 °C 54.9 °F /  12.7 °C
Humidity: Humidity% 30% 67%
Wind Speed: WindSpeedMPHmph /  0km/h - 1.1mph /  1.8km/h
Wind Gust: WindSpeedGustMPHmph /  0km/h - -
Wind- - SSE
Pressure: PressureIn in /  0 hPa 29.80 in /  1009 hPa -
Precipitation: 0.21 in /  5.33 mm    
Historical Graphs
 
 
Tabular Data for November 3, 2017
Time Temperature Dew Point Pressure Wind Wind Speed Wind Gust Humidity Rainfall Rate (Hourly) solar Conditions
TemperatureF °F /  -17.8 °C DewpointF °F /  -17.8 °C PressureInin /  0hPa Calm     Humidity% HourlyPrecipInin /  0mm SolarRadiationWatts/m^2 W/m2 Conditions
00:02 60.4 °F /  15.8 °C 56.5 °F /  13.6 °C 29.87in /  1011.4hPa ENE 0.9mph /  1.4km/h 3.0mph /  4.8km/h 87% 0.00in /  0mm 0.0 W/m2
00:07 60.4 °F /  15.8 °C 56.3 °F /  13.5 °C 29.87in /  1011.4hPa Calm   2.0mph /  3.2km/h 86% 0.00in /  0mm 0.0 W/m2
00:13 60.4 °F /  15.8 °C 56.3 °F /  13.5 °C 29.87in /  1011.4hPa Calm   2.0mph /  3.2km/h 86% 0.00in /  0mm 0.0 W/m2
00:18 60.3 °F /  15.7 °C 55.8 °F /  13.2 °C 29.88in /  1011.7hPa Calm   1.0mph /  1.6km/h 85% 0.00in /  0mm 0.0 W/m2
00:23 60.3 °F /  15.7 °C 55.8 °F /  13.2 °C 29.87in /  1011.4hPa Calm     85% 0.00in /  0mm 0.0 W/m2
00:28 60.3 °F /  15.7 °C 55.8 °F /  13.2 °C 29.87in /  1011.4hPa Calm   2.0mph /  3.2km/h 85% 0.00in /  0mm 0.0 W/m2
00:33 60.3 °F /  15.7 °C 55.8 °F /  13.2 °C 29.87in /  1011.4hPa Calm   1.0mph /  1.6km/h 85% 0.00in /  0mm 0.0 W/m2
00:38 60.4 °F /  15.8 °C 55.9 °F /  13.3 °C 29.87in /  1011.4hPa Calm   1.0mph /  1.6km/h 85% 0.00in /  0mm 0.0 W/m2
00:43 60.4 °F /  15.8 °C 55.9 °F /  13.3 °C 29.87in /  1011.4hPa Calm   2.0mph /  3.2km/h 85% 0.00in /  0mm 0.0 W/m2
00:48 60.4 °F /  15.8 °C 55.9 °F /  13.3 °C 29.88in /  1011.7hPa Calm     85% 0.00in /  0mm 0.0 W/m2
00:53 60.4 °F /  15.8 °C 55.9 °F /  13.3 °C 29.87in /  1011.4hPa Calm     85% 0.00in /  0mm 0.0 W/m2
00:59 60.4 °F /  15.8 °C 55.9 °F /  13.3 °C 29.87in /  1011.4hPa Calm   1.0mph /  1.6km/h 85% 0.00in /  0mm 0.0 W/m2
01:04 60.3 °F /  15.7 °C 55.4 °F /  13 °C 29.87in /  1011.4hPa Calm     84% 0.00in /  0mm 0.0 W/m2
01:09 60.3 °F /  15.7 °C 55.4 °F /  13 °C 29.87in /  1011.4hPa Calm   1.0mph /  1.6km/h 84% 0.00in /  0mm 0.0 W/m2
01:14 60.3 °F /  15.7 °C 55.4 °F /  13 °C 29.87in /  1011.4hPa Calm   1.0mph /  1.6km/h 84% 0.00in /  0mm 0.0 W/m2
01:19 60.3 °F /  15.7 °C 55.0 °F /  12.8 °C 29.87in /  1011.4hPa Calm     83% 0.00in /  0mm 0.0 W/m2
01:24 60.3 °F /  15.7 °C 55.4 °F /  13 °C 29.87in /  1011.4hPa Calm   1.0mph /  1.6km/h 84% 0.00in /  0mm 0.0 W/m2
01:29 60.3 °F /  15.7 °C 55.0 °F /  12.8 °C 29.87in /  1011.4hPa Calm     83% 0.00in /  0mm 0.0 W/m2
01:35 60.3 °F /  15.7 °C 55.0 °F /  12.8 °C 29.86in /  1011.1hPa Calm     83% 0.00in /  0mm 0.0 W/m2
01:40 60.3 °F /  15.7 °C 55.4 °F /  13 °C 29.87in /  1011.4hPa Calm   1.0mph /  1.6km/h 84% 0.00in /  0mm 0.0 W/m2
01:45 60.1 °F /  15.6 °C 55.2 °F /  12.9 °C 29.86in /  1011.1hPa Calm     84% 0.00in /  0mm 0.0 W/m2
01:50 60.1 °F /  15.6 °C 55.2 °F /  12.9 °C 29.86in /  1011.1hPa Calm     84% 0.00in /  0mm 0.0 W/m2
01:56 59.9 °F /  15.5 °C 54.7 °F /  12.6 °C 29.86in /  1011.1hPa Calm   1.0mph /  1.6km/h 83% 0.00in /  0mm 0.0 W/m2
02:01 59.9 °F /  15.5 °C 54.7 °F /  12.6 °C 29.86in /  1011.1hPa Calm   1.0mph /  1.6km/h 83% 0.00in /  0mm 0.0 W/m2
02:06 59.9 °F /  15.5 °C 54.7 °F /  12.6 °C 29.86in /  1011.1hPa Calm     83% 0.00in /  0mm 0.0 W/m2
02:11 60.1 °F /  15.6 °C 55.2 °F /  12.9 °C 29.85in /  1010.7hPa Calm   1.0mph /  1.6km/h 84% 0.00in /  0mm 0.0 W/m2
02:16 60.1 °F /  15.6 °C 55.2 °F /  12.9 °C 29.85in /  1010.7hPa Calm     84% 0.00in /  0mm 0.0 W/m2
02:22 60.3 °F /  15.7 °C 55.4 °F /  13 °C 29.85in /  1010.7hPa Calm     84% 0.00in /  0mm 0.0 W/m2
02:27 60.3 °F /  15.7 °C 55.4 °F /  13 °C 29.85in /  1010.7hPa ENE 0.9mph /  1.4km/h 1.0mph /  1.6km/h 84% 0.00in /  0mm 0.0 W/m2
02:33 60.3 °F /  15.7 °C 55.4 °F /  13 °C 29.85in /  1010.7hPa Calm   2.0mph /  3.2km/h 84% 0.00in /  0mm 0.0 W/m2
02:38 60.4 °F /  15.8 °C 55.6 °F /  13.1 °C 29.85in /  1010.7hPa Calm   1.0mph /  1.6km/h 84% 0.00in /  0mm 0.0 W/m2
02:43 60.4 °F /  15.8 °C 55.6 °F /  13.1 °C 29.85in /  1010.7hPa Calm   1.0mph /  1.6km/h 84% 0.00in /  0mm 0.0 W/m2
02:48 60.4 °F /  15.8 °C 55.2 °F /  12.9 °C 29.85in /  1010.7hPa Calm     83% 0.00in /  0mm 0.0 W/m2
02:53 60.4 °F /  15.8 °C 55.2 °F /  12.9 °C 29.85in /  1010.7hPa Calm     83% 0.00in /  0mm 0.0 W/m2
02:58 60.4 °F /  15.8 °C 55.2 °F /  12.9 °C 29.85in /  1010.7hPa Calm     83% 0.00in /  0mm 0.0 W/m2
03:03 60.4 °F /  15.8 °C 55.2 °F /  12.9 °C 29.85in /  1010.7hPa Calm   1.0mph /  1.6km/h 83% 0.00in /  0mm 0.0 W/m2
03:08 60.3 °F /  15.7 °C 55.0 °F /  12.8 °C 29.85in /  1010.7hPa Calm     83% 0.00in /  0mm 0.0 W/m2
03:14 60.3 °F /  15.7 °C 55.4 °F /  13 °C 29.84in /  1010.4hPa Calm   1.0mph /  1.6km/h 84% 0.00in /  0mm 0.0 W/m2
03:19 60.1 °F /  15.6 °C 55.2 °F /  12.9 °C 29.84in /  1010.4hPa Calm     84% 0.00in /  0mm 0.0 W/m2
03:24 59.9 °F /  15.5 °C 55.0 °F /  12.8 °C 29.84in /  1010.4hPa Calm   1.0mph /  1.6km/h 84% 0.00in /  0mm 0.0 W/m2
03:29 59.7 °F /  15.4 °C 54.9 °F /  12.7 °C 29.84in /  1010.4hPa Calm     84% 0.00in /  0mm 0.0 W/m2
03:34 59.7 °F /  15.4 °C 54.9 °F /  12.7 °C 29.84in /  1010.4hPa Calm   1.0mph /  1.6km/h 84% 0.00in /  0mm 0.0 W/m2
03:39 59.7 °F /  15.4 °C 54.9 °F /  12.7 °C 29.84in /  1010.4hPa Calm   1.0mph /  1.6km/h 84% 0.00in /  0mm 0.0 W/m2
03:44 59.7 °F /  15.4 °C 54.9 °F /  12.7 °C 29.84in /  1010.4hPa Calm     84% 0.00in /  0mm 0.0 W/m2
03:50 59.7 °F /  15.4 °C 55.2 °F /  12.9 °C 29.84in /  1010.4hPa Calm     85% 0.00in /  0mm 0.0 W/m2
03:55 59.7 °F /  15.4 °C 54.9 °F /  12.7 °C 29.84in /  1010.4hPa Calm   1.0mph /  1.6km/h 84% 0.00in /  0mm 0.0 W/m2
04:00 59.5 °F /  15.3 °C 54.7 °F /  12.6 °C 29.84in /  1010.4hPa ENE 0.9mph /  1.4km/h 2.0mph /  3.2km/h 84% 0.00in /  0mm 0.0 W/m2
04:05 59.5 °F /  15.3 °C 54.7 °F /  12.6 °C 29.83in /  1010hPa Calm   1.0mph /  1.6km/h 84% 0.00in /  0mm 0.0 W/m2
04:10 59.5 °F /  15.3 °C 54.7 °F /  12.6 °C 29.84in /  1010.4hPa Calm     84% 0.00in /  0mm 0.0 W/m2
04:15 59.4 °F /  15.2 °C 54.5 °F /  12.5 °C 29.83in /  1010hPa Calm   1.0mph /  1.6km/h 84% 0.00in /  0mm 0.0 W/m2
04:20 59.4 °F /  15.2 °C 54.5 °F /  12.5 °C 29.83in /  1010hPa Calm   1.0mph /  1.6km/h 84% 0.00in /  0mm 0.0 W/m2
04:25 59.2 °F /  15.1 °C 54.0 °F /  12.2 °C 29.83in /  1010hPa Calm     83% 0.00in /  0mm 0.0 W/m2
04:30 59.0 °F /  15 °C 53.8 °F /  12.1 °C 29.83in /  1010hPa Calm     83% 0.00in /  0mm 0.0 W/m2
04:35 58.8 °F /  14.9 °C 53.6 °F /  12 °C 29.83in /  1010hPa Calm   1.0mph /  1.6km/h 83% 0.00in /  0mm 0.0 W/m2
04:40 58.8 °F /  14.9 °C 54.0 °F /  12.2 °C 29.83in /  1010hPa Calm     84% 0.00in /  0mm 0.0 W/m2
04:46 58.6 °F /  14.8 °C 53.8 °F /  12.1 °C 29.83in /  1010hPa Calm     84% 0.00in /  0mm 0.0 W/m2
04:51 58.6 °F /  14.8 °C 53.8 °F /  12.1 °C 29.83in /  1010hPa Calm     84% 0.00in /  0mm 0.0 W/m2
04:56 58.5 °F /  14.7 °C 53.6 °F /  12 °C 29.83in /  1010hPa Calm     84% 0.00in /  0mm 0.0 W/m2
05:01 58.3 °F /  14.6 °C 53.8 °F /  12.1 °C 29.83in /  1010hPa Calm     85% 0.00in /  0mm 0.0 W/m2
05:06 58.3 °F /  14.6 °C 53.8 °F /  12.1 °C 29.83in /  1010hPa Calm     85% 0.00in /  0mm 0.0 W/m2
05:16 57.9 °F /  14.4 °C 53.4 °F /  11.9 °C 29.83in /  1010hPa Calm     85% 0.00in /  0mm 0.0 W/m2
05:21 57.7 °F /  14.3 °C 53.6 °F /  12 °C 29.83in /  1010hPa Calm     86% 0.00in /  0mm 0.0 W/m2
05:27 57.7 °F /  14.3 °C 53.6 °F /  12 °C 29.83in /  1010hPa Calm     86% 0.00in /  0mm 0.0 W/m2
05:32 57.6 °F /  14.2 °C 53.4 °F /  11.9 °C 29.83in /  1010hPa Calm     86% 0.00in /  0mm 0.0 W/m2
05:33 57.6 °F /  14.2 °C 53.4 °F /  11.9 °C 29.83in /  1010hPa Calm   1.0mph /  1.6km/h 86% 0.00in /  0mm 0.0 W/m2
05:38 57.6 °F /  14.2 °C 53.4 °F /  11.9 °C 29.83in /  1010hPa Calm     86% 0.00in /  0mm 0.0 W/m2
05:39 57.6 °F /  14.2 °C 53.4 °F /  11.9 °C 29.83in /  1010hPa Calm   1.0mph /  1.6km/h 86% 0.00in /  0mm 0.0 W/m2
05:44 57.6 °F /  14.2 °C 53.4 °F /  11.9 °C 29.84in /  1010.4hPa Calm     86% 0.00in /  0mm 0.0 W/m2
05:49 57.6 °F /  14.2 °C 53.4 °F /  11.9 °C 29.84in /  1010.4hPa Calm     86% 0.00in /  0mm 0.0 W/m2
05:54 57.4 °F /  14.1 °C 53.2 °F /  11.8 °C 29.84in /  1010.4hPa Calm   1.0mph /  1.6km/h 86% 0.00in /  0mm 0.0 W/m2
05:59 57.4 °F /  14.1 °C 53.6 °F /  12 °C 29.84in /  1010.4hPa Calm     87% 0.00in /  0mm 0.0 W/m2
06:04 57.4 °F /  14.1 °C 53.6 °F /  12 °C 29.85in /  1010.7hPa Calm     87% 0.00in /  0mm 0.0 W/m2
06:10 57.4 °F /  14.1 °C 53.6 °F /  12 °C 29.85in /  1010.7hPa Calm     87% 0.00in /  0mm 0.0 W/m2
06:15 57.2 °F /  14 °C 53.4 °F /  11.9 °C 29.85in /  1010.7hPa Calm     87% 0.00in /  0mm 5.0 W/m2
06:20 57.0 °F /  13.9 °C 53.2 °F /  11.8 °C 29.85in /  1010.7hPa Calm   1.0mph /  1.6km/h 87% 0.00in /  0mm 7.0 W/m2
06:25 57.0 °F /  13.9 °C 53.2 °F /  11.8 °C 29.85in /  1010.7hPa ENE 0.9mph /  1.4km/h 2.0mph /  3.2km/h 87% 0.00in /  0mm 9.0 W/m2
06:30 57.0 °F /  13.9 °C 53.2 °F /  11.8 °C 29.86in /  1011.1hPa Calm   3.0mph /  4.8km/h 87% 0.00in /  0mm 9.0 W/m2
06:36 56.8 °F /  13.8 °C 53.1 °F /  11.7 °C 29.86in /  1011.1hPa Calm   2.0mph /  3.2km/h 87% 0.00in /  0mm 11.0 W/m2
06:41 56.8 °F /  13.8 °C 53.1 °F /  11.7 °C 29.87in /  1011.4hPa ENE 2.0mph /  3.2km/h 2.0mph /  3.2km/h 87% 0.00in /  0mm 12.0 W/m2
06:46 57.0 °F /  13.9 °C 53.2 °F /  11.8 °C 29.88in /  1011.7hPa Calm     87% 0.00in /  0mm 12.0 W/m2
06:52 57.2 °F /  14 °C 53.6 °F /  12 °C 29.88in /  1011.7hPa Calm     88% 0.00in /  0mm 12.0 W/m2
06:57 57.2 °F /  14 °C 53.4 °F /  11.9 °C 29.88in /  1011.7hPa Calm     87% 0.00in /  0mm 14.0 W/m2
07:03 57.2 °F /  14 °C 53.4 °F /  11.9 °C 29.88in /  1011.7hPa Calm     87% 0.00in /  0mm 16.0 W/m2
07:08 57.4 °F /  14.1 °C 53.6 °F /  12 °C 29.88in /  1011.7hPa Calm   1.0mph /  1.6km/h 87% 0.00in /  0mm 18.0 W/m2
07:13 57.4 °F /  14.1 °C 53.6 °F /  12 °C 29.89in /  1012.1hPa Calm     87% 0.00in /  0mm 21.0 W/m2
07:14 57.4 °F /  14.1 °C 53.6 °F /  12 °C 29.89in /  1012.1hPa Calm     87% 0.00in /  0mm 21.0 W/m2
07:19 57.4 °F /  14.1 °C 53.6 °F /  12 °C 29.89in /  1012.1hPa Calm     87% 0.00in /  0mm 26.0 W/m2
07:24 57.6 °F /  14.2 °C 54.0 °F /  12.2 °C 29.89in /  1012.1hPa Calm     88% 0.00in /  0mm 32.0 W/m2
07:29 57.9 °F /  14.4 °C 54.1 °F /  12.3 °C 29.89in /  1012.1hPa Calm   1.0mph /  1.6km/h 87% 0.00in /  0mm 33.0 W/m2
07:34 58.3 °F /  14.6 °C 54.5 °F /  12.5 °C 29.90in /  1012.4hPa Calm   1.0mph /  1.6km/h 87% 0.00in /  0mm 39.0 W/m2
07:40 58.8 °F /  14.9 °C 55.0 °F /  12.8 °C 29.90in /  1012.4hPa Calm   1.0mph /  1.6km/h 87% 0.00in /  0mm 46.0 W/m2
07:50 60.6 °F /  15.9 °C 54.7 °F /  12.6 °C 29.90in /  1012.4hPa Calm   1.0mph /  1.6km/h 81% 0.00in /  0mm 39.0 W/m2
07:55 61.5 °F /  16.4 °C 54.7 °F /  12.6 °C 29.90in /  1012.4hPa Calm     78% 0.00in /  0mm 199.0 W/m2
07:57 61.7 °F /  16.5 °C 54.5 °F /  12.5 °C 29.90in /  1012.4hPa Calm   1.0mph /  1.6km/h 77% 0.00in /  0mm 178.0 W/m2
08:02 62.6 °F /  17 °C 54.1 °F /  12.3 °C 29.90in /  1012.4hPa Calm   1.0mph /  1.6km/h 74% 0.00in /  0mm 373.0 W/m2
08:07 63.3 °F /  17.4 °C 54.5 °F /  12.5 °C 29.90in /  1012.4hPa Calm   1.0mph /  1.6km/h 73% 0.00in /  0mm 399.0 W/m2
08:12 64.0 °F /  17.8 °C 54.9 °F /  12.7 °C 29.90in /  1012.4hPa ENE 0.9mph /  1.4km/h 1.0mph /  1.6km/h 72% 0.00in /  0mm 431.0 W/m2
08:17 64.8 °F /  18.2 °C 54.7 °F /  12.6 °C 29.90in /  1012.4hPa Calm   1.0mph /  1.6km/h 70% 0.00in /  0mm 462.0 W/m2
08:22 65.8 °F /  18.8 °C 55.4 °F /  13 °C 29.90in /  1012.4hPa Calm   2.0mph /  3.2km/h 69% 0.00in /  0mm 494.0 W/m2
08:28 67.1 °F /  19.5 °C 54.9 °F /  12.7 °C 29.90in /  1012.4hPa SE 0.9mph /  1.4km/h 3.0mph /  4.8km/h 65% 0.00in /  0mm 512.0 W/m2
08:33 67.8 °F /  19.9 °C 53.4 °F /  11.9 °C 29.91in /  1012.8hPa Calm   3.0mph /  4.8km/h 60% 0.00in /  0mm 534.0 W/m2
08:38 69.1 °F /  20.6 °C 54.7 °F /  12.6 °C 29.91in /  1012.8hPa NE 0.9mph /  1.4km/h 4.0mph /  6.4km/h 60% 0.00in /  0mm 548.0 W/m2
08:43 70.2 °F /  21.2 °C 54.1 °F /  12.3 °C 29.91in /  1012.8hPa Calm   1.0mph /  1.6km/h 57% 0.00in /  0mm 568.0 W/m2
08:48 70.9 °F /  21.6 °C 53.4 °F /  11.9 °C 29.91in /  1012.8hPa NE 2.0mph /  3.2km/h 5.0mph /  8km/h 54% 0.00in /  0mm 587.0 W/m2
08:53 71.6 °F /  22 °C 54.1 °F /  12.3 °C 29.91in /  1012.8hPa Calm   3.0mph /  4.8km/h 54% 0.00in /  0mm 605.0 W/m2
08:58 72.1 °F /  22.3 °C 53.6 °F /  12 °C 29.91in /  1012.8hPa NNE 2.9mph /  4.7km/h 6.0mph /  9.7km/h 52% 0.00in /  0mm 621.0 W/m2
09:03 72.9 °F /  22.7 °C 53.1 °F /  11.7 °C 29.92in /  1013.1hPa NE 2.0mph /  3.2km/h 7.0mph /  11.3km/h 50% 0.00in /  0mm 642.0 W/m2
09:08 73.2 °F /  22.9 °C 53.4 °F /  11.9 °C 29.92in /  1013.1hPa NNE 4.9mph /  7.9km/h 7.0mph /  11.3km/h 50% 0.00in /  0mm 657.0 W/m2
09:13 73.6 °F /  23.1 °C 53.2 °F /  11.8 °C 29.91in /  1012.8hPa East 4.0mph /  6.4km/h 7.0mph /  11.3km/h 49% 0.00in /  0mm 687.0 W/m2
09:19 74.1 °F /  23.4 °C 53.2 °F /  11.8 °C 29.91in /  1012.8hPa ENE 0.9mph /  1.4km/h 5.0mph /  8km/h 48% 0.00in /  0mm 737.0 W/m2
09:24 74.7 °F /  23.7 °C 53.6 °F /  12 °C 29.92in /  1013.1hPa ESE 2.0mph /  3.2km/h 4.0mph /  6.4km/h 48% 0.00in /  0mm 462.0 W/m2
09:29 74.7 °F /  23.7 °C 53.1 °F /  11.7 °C 29.92in /  1013.1hPa North 2.0mph /  3.2km/h 4.0mph /  6.4km/h 47% 0.00in /  0mm 318.0 W/m2
09:34 74.5 °F /  23.6 °C 53.4 °F /  11.9 °C 29.92in /  1013.1hPa Calm   5.0mph /  8km/h 48% 0.00in /  0mm 325.0 W/m2
09:39 74.1 °F /  23.4 °C 53.2 °F /  11.8 °C 29.92in /  1013.1hPa East 2.9mph /  4.7km/h 5.0mph /  8km/h 48% 0.00in /  0mm 403.0 W/m2
09:44 73.9 °F /  23.3 °C 53.1 °F /  11.7 °C 29.92in /  1013.1hPa NE 0.9mph /  1.4km/h 6.0mph /  9.7km/h 48% 0.00in /  0mm 1072.0 W/m2
09:49 74.3 °F /  23.5 °C 54.0 °F /  12.2 °C 29.92in /  1013.1hPa ESE 4.9mph /  7.9km/h 5.0mph /  8km/h 49% 0.00in /  0mm 1013.0 W/m2
09:55 74.7 °F /  23.7 °C 54.3 °F /  12.4 °C 29.92in /  1013.1hPa ESE 4.9mph /  7.9km/h 8.0mph /  12.9km/h 49% 0.00in /  0mm 793.0 W/m2
10:00 75.0 °F /  23.9 °C 54.0 °F /  12.2 °C 29.91in /  1012.8hPa East 8.1mph /  13km/h 9.0mph /  14.5km/h 48% 0.00in /  0mm 886.0 W/m2
10:05 75.7 °F /  24.3 °C 54.1 °F /  12.3 °C 29.91in /  1012.8hPa Calm   3.0mph /  4.8km/h 47% 0.00in /  0mm 912.0 W/m2
10:10 76.3 °F /  24.6 °C 53.4 °F /  11.9 °C 29.91in /  1012.8hPa NNE 2.9mph /  4.7km/h 8.0mph /  12.9km/h 45% 0.00in /  0mm 919.0 W/m2
10:15 76.6 °F /  24.8 °C 54.3 °F /  12.4 °C 29.91in /  1012.8hPa Calm   2.0mph /  3.2km/h 46% 0.00in /  0mm 965.0 W/m2
10:20 77.4 °F /  25.2 °C 55.0 °F /  12.8 °C 29.91in /  1012.8hPa NE 2.9mph /  4.7km/h 8.0mph /  12.9km/h 46% 0.00in /  0mm 963.0 W/m2
10:25 77.7 °F /  25.4 °C 54.7 °F /  12.6 °C 29.91in /  1012.8hPa NE 0.9mph /  1.4km/h 7.0mph /  11.3km/h 45% 0.00in /  0mm 1118.0 W/m2
10:30 77.7 °F /  25.4 °C 54.1 °F /  12.3 °C 29.91in /  1012.8hPa ENE 4.0mph /  6.4km/h 6.0mph /  9.7km/h 44% 0.00in /  0mm 336.0 W/m2
10:35 77.4 °F /  25.2 °C 54.3 °F /  12.4 °C 29.91in /  1012.8hPa NE 6.0mph /  9.7km/h 7.0mph /  11.3km/h 45% 0.00in /  0mm 399.0 W/m2
10:40 77.2 °F /  25.1 °C 53.6 °F /  12 °C 29.91in /  1012.8hPa NNE 2.9mph /  4.7km/h 5.0mph /  8km/h 44% 0.00in /  0mm 399.0 W/m2
10:46 77.2 °F /  25.1 °C 53.6 °F /  12 °C 29.91in /  1012.8hPa NE 2.9mph /  4.7km/h 5.0mph /  8km/h 44% 0.00in /  0mm 327.0 W/m2
10:52 77.2 °F /  25.1 °C 52.9 °F /  11.6 °C 29.91in /  1012.8hPa Calm   2.0mph /  3.2km/h 43% 0.00in /  0mm 327.0 W/m2
10:57 77.2 °F /  25.1 °C 53.6 °F /  12 °C 29.90in /  1012.4hPa East 0.9mph /  1.4km/h 3.0mph /  4.8km/h 44% 0.00in /  0mm 466.0 W/m2
11:02 77.4 °F /  25.2 °C 53.8 °F /  12.1 °C 29.90in /  1012.4hPa ESE 0.9mph /  1.4km/h 6.0mph /  9.7km/h 44% 0.00in /  0mm 1104.0 W/m2
11:07 78.1 °F /  25.6 °C 53.1 °F /  11.7 °C 29.90in /  1012.4hPa Calm   3.0mph /  4.8km/h 42% 0.00in /  0mm 1104.0 W/m2
11:12 79.2 °F /  26.2 °C 53.4 °F /  11.9 °C 29.90in /  1012.4hPa North 2.9mph /  4.7km/h 5.0mph /  8km/h 41% 0.00in /  0mm 1011.0 W/m2
11:17 80.1 °F /  26.7 °C 53.6 °F /  12 °C 29.90in /  1012.4hPa Calm   1.0mph /  1.6km/h 40% 0.00in /  0mm 1025.0 W/m2
11:22 80.8 °F /  27.1 °C 53.6 °F /  12 °C 29.90in /  1012.4hPa NNE 2.9mph /  4.7km/h 9.0mph /  14.5km/h 39% 0.00in /  0mm 1093.0 W/m2
11:27 81.5 °F /  27.5 °C 53.4 °F /  11.9 °C 29.90in /  1012.4hPa North 2.9mph /  4.7km/h 8.0mph /  12.9km/h 38% 0.00in /  0mm 1132.0 W/m2
11:32 81.3 °F /  27.4 °C 52.5 °F /  11.4 °C 29.90in /  1012.4hPa Calm   6.0mph /  9.7km/h 37% 0.00in /  0mm 250.0 W/m2
11:37 81.0 °F /  27.2 °C 52.2 °F /  11.2 °C 29.90in /  1012.4hPa North 0.9mph /  1.4km/h 2.0mph /  3.2km/h 37% 0.00in /  0mm 462.0 W/m2
11:42 81.0 °F /  27.2 °C 52.2 °F /  11.2 °C 29.89in /  1012.1hPa North 2.0mph /  3.2km/h 3.0mph /  4.8km/h 37% 0.00in /  0mm 1092.0 W/m2
11:48 81.7 °F /  27.6 °C 52.9 °F /  11.6 °C 29.89in /  1012.1hPa West 0.9mph /  1.4km/h 5.0mph /  8km/h 37% 0.00in /  0mm 1125.0 W/m2
11:53 81.9 °F /  27.7 °C 52.3 °F /  11.3 °C 29.89in /  1012.1hPa North 4.0mph /  6.4km/h 10.0mph /  16.1km/h 36% 0.00in /  0mm 531.0 W/m2
11:58 82.4 °F /  28 °C 51.3 °F /  10.7 °C 29.89in /  1012.1hPa NNW 2.0mph /  3.2km/h 8.0mph /  12.9km/h 34% 0.00in /  0mm 1172.0 W/m2
12:03 82.6 °F /  28.1 °C 51.4 °F /  10.8 °C 29.89in /  1012.1hPa NW 2.9mph /  4.7km/h 5.0mph /  8km/h 34% 0.00in /  0mm 320.0 W/m2
12:08 82.8 °F /  28.2 °C 51.4 °F /  10.8 °C 29.89in /  1012.1hPa WNW 2.9mph /  4.7km/h 5.0mph /  8km/h 34% 0.00in /  0mm 1153.0 W/m2
12:13 83.5 °F /  28.6 °C 51.4 °F /  10.8 °C 29.89in /  1012.1hPa NW 2.9mph /  4.7km/h 8.0mph /  12.9km/h 33% 0.00in /  0mm 1141.0 W/m2
12:18 83.8 °F /  28.8 °C 51.6 °F /  10.9 °C 29.88in /  1011.7hPa West 4.9mph /  7.9km/h 5.0mph /  8km/h 33% 0.00in /  0mm 1139.0 W/m2
12:23 83.8 °F /  28.8 °C 51.6 °F /  10.9 °C 29.88in /  1011.7hPa NNE 4.0mph /  6.4km/h 9.0mph /  14.5km/h 33% 0.00in /  0mm 1179.0 W/m2
12:28 84.4 °F /  29.1 °C 51.3 °F /  10.7 °C 29.88in /  1011.7hPa WNW 4.9mph /  7.9km/h 9.0mph /  14.5km/h 32% 0.00in /  0mm 1259.0 W/m2
12:33 84.0 °F /  28.9 °C 50.2 °F /  10.1 °C 29.88in /  1011.7hPa Calm   1.0mph /  1.6km/h 31% 0.00in /  0mm 288.0 W/m2
12:39 84.0 °F /  28.9 °C 50.9 °F /  10.5 °C 29.88in /  1011.7hPa NNE 2.0mph /  3.2km/h 3.0mph /  4.8km/h 32% 0.00in /  0mm 1264.0 W/m2
12:44 84.6 °F /  29.2 °C 50.5 °F /  10.3 °C 29.88in /  1011.7hPa WSW 2.9mph /  4.7km/h 6.0mph /  9.7km/h 31% 0.00in /  0mm 350.0 W/m2
12:49 84.9 °F /  29.4 °C 50.9 °F /  10.5 °C 29.88in /  1011.7hPa Calm   9.0mph /  14.5km/h 31% 0.00in /  0mm 1218.0 W/m2
12:54 85.3 °F /  29.6 °C 51.3 °F /  10.7 °C 29.87in /  1011.4hPa West 2.0mph /  3.2km/h 9.0mph /  14.5km/h 31% 0.00in /  0mm 1299.0 W/m2
12:59 84.9 °F /  29.4 °C 50.9 °F /  10.5 °C 29.87in /  1011.4hPa Calm   2.0mph /  3.2km/h 31% 0.00in /  0mm 1062.0 W/m2
13:05 84.7 °F /  29.3 °C 51.6 °F /  10.9 °C 29.87in /  1011.4hPa WNW 0.9mph /  1.4km/h 4.0mph /  6.4km/h 32% 0.00in /  0mm 1306.0 W/m2
13:10 84.7 °F /  29.3 °C 51.6 °F /  10.9 °C 29.87in /  1011.4hPa NNW 4.0mph /  6.4km/h 7.0mph /  11.3km/h 32% 0.00in /  0mm 1306.0 W/m2
13:15 84.6 °F /  29.2 °C 51.4 °F /  10.8 °C 29.86in /  1011.1hPa NNE 6.9mph /  11.1km/h 9.0mph /  14.5km/h 32% 0.00in /  0mm 341.0 W/m2
13:21 83.8 °F /  28.8 °C 52.5 °F /  11.4 °C 29.86in /  1011.1hPa South 0.9mph /  1.4km/h 2.0mph /  3.2km/h 34% 0.00in /  0mm 988.0 W/m2
13:26 84.4 °F /  29.1 °C 52.2 °F /  11.2 °C 29.86in /  1011.1hPa North 4.9mph /  7.9km/h 6.0mph /  9.7km/h 33% 0.00in /  0mm 1255.0 W/m2
13:31 84.9 °F /  29.4 °C 52.5 °F /  11.4 °C 29.85in /  1010.7hPa NNE 4.0mph /  6.4km/h 12.0mph /  19.3km/h 33% 0.00in /  0mm 1208.0 W/m2
13:36 85.6 °F /  29.8 °C 52.3 °F /  11.3 °C 29.85in /  1010.7hPa NNW 4.9mph /  7.9km/h 8.0mph /  12.9km/h 32% 0.00in /  0mm 1183.0 W/m2
13:42 86.4 °F /  30.2 °C 53.1 °F /  11.7 °C 29.85in /  1010.7hPa NNW 0.9mph /  1.4km/h 6.0mph /  9.7km/h 32% 0.00in /  0mm 452.0 W/m2
13:47 86.5 °F /  30.3 °C 53.2 °F /  11.8 °C 29.85in /  1010.7hPa WSW 2.0mph /  3.2km/h 8.0mph /  12.9km/h 32% 0.00in /  0mm 1144.0 W/m2
13:52 86.5 °F /  30.3 °C 51.4 °F /  10.8 °C 29.84in /  1010.4hPa NNW 0.9mph /  1.4km/h 9.0mph /  14.5km/h 30% 0.00in /  0mm 1192.0 W/m2
13:57 85.8 °F /  29.9 °C 51.6 °F /  10.9 °C 29.84in /  1010.4hPa NNE 2.0mph /  3.2km/h 8.0mph /  12.9km/h 31% 0.00in /  0mm 274.0 W/m2
14:02 85.5 °F /  29.7 °C 52.2 °F /  11.2 °C 29.84in /  1010.4hPa NNE 2.9mph /  4.7km/h 5.0mph /  8km/h 32% 0.00in /  0mm 1137.0 W/m2
14:07 85.8 °F /  29.9 °C 51.6 °F /  10.9 °C 29.84in /  1010.4hPa NNW 4.0mph /  6.4km/h 9.0mph /  14.5km/h 31% 0.00in /  0mm 313.0 W/m2
14:13 85.6 °F /  29.8 °C 52.3 °F /  11.3 °C 29.83in /  1010hPa NNW 10.1mph /  16.3km/h 10.1mph /  16.3km/h 32% 0.00in /  0mm 236.0 W/m2
14:18 86.0 °F /  30 °C 52.7 °F /  11.5 °C 29.83in /  1010hPa North 2.0mph /  3.2km/h 7.0mph /  11.3km/h 32% 0.00in /  0mm 1051.0 W/m2
14:23 86.7 °F /  30.4 °C 52.5 °F /  11.4 °C 29.82in /  1009.7hPa West 2.0mph /  3.2km/h 7.0mph /  11.3km/h 31% 0.00in /  0mm 1028.0 W/m2
14:28 86.7 °F /  30.4 °C 51.6 °F /  10.9 °C 29.82in /  1009.7hPa West 2.0mph /  3.2km/h 10.0mph /  16.1km/h 30% 0.00in /  0mm 775.0 W/m2
14:33 86.4 °F /  30.2 °C 51.3 °F /  10.7 °C 29.82in /  1009.7hPa WNW 2.9mph /  4.7km/h 10.0mph /  16.1km/h 30% 0.00in /  0mm 283.0 W/m2
14:38 85.6 °F /  29.8 °C 51.6 °F /  10.9 °C 29.82in /  1009.7hPa NNW 0.9mph /  1.4km/h 5.0mph /  8km/h 31% 0.00in /  0mm 292.0 W/m2
14:43 85.3 °F /  29.6 °C 51.3 °F /  10.7 °C 29.82in /  1009.7hPa Calm   4.0mph /  6.4km/h 31% 0.00in /  0mm 234.0 W/m2
14:48 84.7 °F /  29.3 °C 51.6 °F /  10.9 °C 29.82in /  1009.7hPa NNW 0.9mph /  1.4km/h 3.0mph /  4.8km/h 32% 0.00in /  0mm 176.0 W/m2
14:53 84.0 °F /  28.9 °C 51.8 °F /  11 °C 29.82in /  1009.7hPa WSW 2.9mph /  4.7km/h 7.0mph /  11.3km/h 33% 0.00in /  0mm 160.0 W/m2
14:59 83.5 °F /  28.6 °C 51.4 °F /  10.8 °C 29.82in /  1009.7hPa Calm   3.0mph /  4.8km/h 33% 0.00in /  0mm 162.0 W/m2
15:04 83.1 °F /  28.4 °C 51.8 °F /  11 °C 29.82in /  1009.7hPa West 0.9mph /  1.4km/h 2.0mph /  3.2km/h 34% 0.00in /  0mm 169.0 W/m2
15:09 82.8 °F /  28.2 °C 51.4 °F /  10.8 °C 29.82in /  1009.7hPa North 0.9mph /  1.4km/h 5.0mph /  8km/h 34% 0.00in /  0mm 162.0 W/m2
15:14 82.4 °F /  28 °C 51.3 °F /  10.7 °C 29.81in /  1009.4hPa WNW 0.9mph /  1.4km/h 5.0mph /  8km/h 34% 0.00in /  0mm 158.0 W/m2
15:19 82.2 °F /  27.9 °C 52.5 °F /  11.4 °C 29.80in /  1009hPa WSW 0.9mph /  1.4km/h 2.0mph /  3.2km/h 36% 0.00in /  0mm 141.0 W/m2
15:24 82.0 °F /  27.8 °C 50.9 °F /  10.5 °C 29.81in /  1009.4hPa Calm   2.0mph /  3.2km/h 34% 0.00in /  0mm 130.0 W/m2
15:29 81.9 °F /  27.7 °C 50.7 °F /  10.4 °C 29.81in /  1009.4hPa WSW 2.0mph /  3.2km/h 4.0mph /  6.4km/h 34% 0.00in /  0mm 111.0 W/m2
15:34 81.5 °F /  27.5 °C 50.4 °F /  10.2 °C 29.80in /  1009hPa Calm   2.0mph /  3.2km/h 34% 0.00in /  0mm 100.0 W/m2
15:39 81.3 °F /  27.4 °C 50.2 °F /  10.1 °C 29.80in /  1009hPa WSW 0.9mph /  1.4km/h 2.0mph /  3.2km/h 34% 0.00in /  0mm 81.0 W/m2
15:45 81.1 °F /  27.3 °C 50.2 °F /  10.1 °C 29.80in /  1009hPa NNW 2.9mph /  4.7km/h 6.0mph /  9.7km/h 34% 0.00in /  0mm 42.0 W/m2
15:50 81.0 °F /  27.2 °C 51.4 °F /  10.8 °C 29.82in /  1009.7hPa ESE 6.9mph /  11.1km/h 8.0mph /  12.9km/h 36% 0.00in /  0mm 30.0 W/m2
15:56 80.2 °F /  26.8 °C 53.1 °F /  11.7 °C 29.82in /  1009.7hPa ESE 4.9mph /  7.9km/h 7.0mph /  11.3km/h 39% 0.00in /  0mm 26.0 W/m2
16:01 79.2 °F /  26.2 °C 52.7 °F /  11.5 °C 29.83in /  1010hPa SE 4.9mph /  7.9km/h 9.0mph /  14.5km/h 40% 0.00in /  0mm 32.0 W/m2
16:06 78.3 °F /  25.7 °C 52.7 °F /  11.5 °C 29.82in /  1009.7hPa ESE 4.0mph /  6.4km/h 8.0mph /  12.9km/h 41% 0.00in /  0mm 39.0 W/m2
16:11 77.4 °F /  25.2 °C 53.1 °F /  11.7 °C 29.82in /  1009.7hPa ESE 2.9mph /  4.7km/h 7.0mph /  11.3km/h 43% 0.00in /  0mm 37.0 W/m2
16:16 76.6 °F /  24.8 °C 53.1 °F /  11.7 °C 29.82in /  1009.7hPa SE 2.9mph /  4.7km/h 9.0mph /  14.5km/h 44% 0.00in /  0mm 28.0 W/m2
16:21 76.1 °F /  24.5 °C 55.0 °F /  12.8 °C 29.83in /  1010hPa SSE 4.0mph /  6.4km/h 5.0mph /  8km/h 48% 0.00in /  0mm 21.0 W/m2
16:27 75.6 °F /  24.2 °C 59.2 °F /  15.1 °C 29.84in /  1010.4hPa North 2.9mph /  4.7km/h 3.0mph /  4.8km/h 57% 0.00in /  0mm 16.0 W/m2
16:32 73.2 °F /  22.9 °C 58.5 °F /  14.7 °C 29.85in /  1010.7hPa NNE 6.9mph /  11.1km/h 14.0mph /  22.5km/h 60% 0.03in /  0.76mm 12.0 W/m2
16:37 70.3 °F /  21.3 °C 58.8 °F /  14.9 °C 29.85in /  1010.7hPa East 2.9mph /  4.7km/h 5.0mph /  8km/h 67% 0.05in /  1.27mm 16.0 W/m2
16:42 68.0 °F /  20 °C 58.3 °F /  14.6 °C 29.84in /  1010.4hPa NE 6.0mph /  9.7km/h 12.0mph /  19.3km/h 71% 0.06in /  1.52mm 21.0 W/m2
16:48 65.5 °F /  18.6 °C 57.7 °F /  14.3 °C 29.83in /  1010hPa NE 2.0mph /  3.2km/h 10.0mph /  16.1km/h 76% 0.09in /  2.29mm 32.0 W/m2
16:53 64.6 °F /  18.1 °C 59.0 °F /  15 °C 29.82in /  1009.7hPa NE 2.0mph /  3.2km/h 3.0mph /  4.8km/h 82% 0.15in /  3.81mm 37.0 W/m2
16:58 63.9 °F /  17.7 °C 59.2 °F /  15.1 °C 29.82in /  1009.7hPa Calm   4.0mph /  6.4km/h 85% 0.18in /  4.57mm 49.0 W/m2
17:03 63.5 °F /  17.5 °C 59.2 °F /  15.1 °C 29.82in /  1009.7hPa Calm   4.0mph /  6.4km/h 86% 0.20in /  5.08mm 56.0 W/m2
17:08 63.3 °F /  17.4 °C 59.7 °F /  15.4 °C 29.82in /  1009.7hPa Calm   1.0mph /  1.6km/h 88% 0.20in /  5.08mm 62.0 W/m2
17:13 63.1 °F /  17.3 °C 59.9 °F /  15.5 °C 29.83in /  1010hPa NE 0.9mph /  1.4km/h 2.0mph /  3.2km/h 89% 0.20in /  5.08mm 60.0 W/m2
17:18 63.3 °F /  17.4 °C 60.1 °F /  15.6 °C 29.83in /  1010hPa Calm   3.0mph /  4.8km/h 89% 0.20in /  5.08mm 58.0 W/m2
17:24 63.3 °F /  17.4 °C 60.3 °F /  15.7 °C 29.83in /  1010hPa Calm   3.0mph /  4.8km/h 90% 0.20in /  5.08mm 54.0 W/m2
17:29 63.5 °F /  17.5 °C 60.3 °F /  15.7 °C 29.84in /  1010.4hPa ESE 2.0mph /  3.2km/h 2.0mph /  3.2km/h 89% 0.19in /  4.83mm 51.0 W/m2
17:34 63.7 °F /  17.6 °C 60.4 °F /  15.8 °C 29.83in /  1010hPa SE 0.9mph /  1.4km/h 4.0mph /  6.4km/h 89% 0.17in /  4.32mm 49.0 W/m2
17:39 63.9 °F /  17.7 °C 60.8 °F /  16 °C 29.83in /  1010hPa SE 2.0mph /  3.2km/h 4.0mph /  6.4km/h 90% 0.16in /  4.06mm 47.0 W/m2
17:44 64.0 °F /  17.8 °C 61.0 °F /  16.1 °C 29.83in /  1010hPa SE 2.9mph /  4.7km/h 4.0mph /  6.4km/h 90% 0.15in /  3.81mm 47.0 W/m2
17:49 64.4 °F /  18 °C 61.2 °F /  16.2 °C 29.82in /  1009.7hPa SSW 0.9mph /  1.4km/h 2.0mph /  3.2km/h 89% 0.10in /  2.54mm 51.0 W/m2
17:54 64.8 °F /  18.2 °C 61.2 °F /  16.2 °C 29.82in /  1009.7hPa Calm   4.0mph /  6.4km/h 88% 0.06in /  1.52mm 56.0 W/m2
17:57 64.9 °F /  18.3 °C 61.7 °F /  16.5 °C 29.82in /  1009.7hPa SE 2.0mph /  3.2km/h 3.0mph /  4.8km/h 89% 0.03in /  0.76mm 60.0 W/m2
18:02 65.1 °F /  18.4 °C 61.9 °F /  16.6 °C 29.83in /  1010hPa Calm   1.0mph /  1.6km/h 89% 0.01in /  0.25mm 62.0 W/m2
18:08 65.1 °F /  18.4 °C 61.9 °F /  16.6 °C 29.83in /  1010hPa Calm   1.0mph /  1.6km/h 89% 0.01in /  0.25mm 62.0 W/m2
18:13 65.1 °F /  18.4 °C 60.8 °F /  16 °C 29.83in /  1010hPa Calm   3.0mph /  4.8km/h 86% 0.01in /  0.25mm 58.0 W/m2
18:18 65.3 °F /  18.5 °C 60.3 °F /  15.7 °C 29.83in /  1010hPa Calm   2.0mph /  3.2km/h 84% 0.01in /  0.25mm 51.0 W/m2
18:23 65.5 °F /  18.6 °C 60.3 °F /  15.7 °C 29.83in /  1010hPa Calm   3.0mph /  4.8km/h 83% 0.01in /  0.25mm 42.0 W/m2
18:28 65.5 °F /  18.6 °C 59.2 °F /  15.1 °C 29.83in /  1010hPa Calm   5.0mph /  8km/h 80% 0.01in /  0.25mm 39.0 W/m2
18:34 66.0 °F /  18.9 °C 59.4 °F /  15.2 °C 29.84in /  1010.4hPa SSW 2.0mph /  3.2km/h 4.0mph /  6.4km/h 79% 0.00in /  0mm 30.0 W/m2
18:39 66.0 °F /  18.9 °C 59.0 °F /  15 °C 29.84in /  1010.4hPa Calm   1.0mph /  1.6km/h 78% 0.00in /  0mm 26.0 W/m2
18:44 65.8 °F /  18.8 °C 58.8 °F /  14.9 °C 29.84in /  1010.4hPa SSE 0.9mph /  1.4km/h 1.0mph /  1.6km/h 78% 0.00in /  0mm 23.0 W/m2
18:50 65.8 °F /  18.8 °C 59.9 °F /  15.5 °C 29.84in /  1010.4hPa Calm   4.0mph /  6.4km/h 81% 0.00in /  0mm 21.0 W/m2
18:55 65.7 °F /  18.7 °C 59.0 °F /  15 °C 29.85in /  1010.7hPa SSW 2.0mph /  3.2km/h 5.0mph /  8km/h 79% 0.00in /  0mm 19.0 W/m2
19:00 65.7 °F /  18.7 °C 59.0 °F /  15 °C 29.85in /  1010.7hPa Calm   3.0mph /  4.8km/h 79% 0.00in /  0mm 12.0 W/m2
19:05 65.7 °F /  18.7 °C 58.6 °F /  14.8 °C 29.85in /  1010.7hPa SSE 0.9mph /  1.4km/h 5.0mph /  8km/h 78% 0.00in /  0mm 12.0 W/m2
19:10 65.7 °F /  18.7 °C 58.6 °F /  14.8 °C 29.85in /  1010.7hPa East 2.0mph /  3.2km/h 5.0mph /  8km/h 78% 0.00in /  0mm 11.0 W/m2
19:15 65.7 °F /  18.7 °C 57.2 °F /  14 °C 29.85in /  1010.7hPa SE 2.0mph /  3.2km/h 4.0mph /  6.4km/h 74% 0.00in /  0mm 5.0 W/m2
19:20 65.8 °F /  18.8 °C 57.7 °F /  14.3 °C 29.85in /  1010.7hPa Calm   1.0mph /  1.6km/h 75% 0.00in /  0mm 0.0 W/m2
19:25 65.8 °F /  18.8 °C 58.1 °F /  14.5 °C 29.85in /  1010.7hPa NNE 0.9mph /  1.4km/h 5.0mph /  8km/h 76% 0.00in /  0mm 0.0 W/m2
19:30 66.0 °F /  18.9 °C 58.6 °F /  14.8 °C 29.86in /  1011.1hPa NE 0.9mph /  1.4km/h 3.0mph /  4.8km/h 77% 0.00in /  0mm 0.0 W/m2
19:35 66.0 °F /  18.9 °C 58.6 °F /  14.8 °C 29.86in /  1011.1hPa Calm   3.0mph /  4.8km/h 77% 0.00in /  0mm 0.0 W/m2
19:41 65.8 °F /  18.8 °C 58.5 °F /  14.7 °C 29.86in /  1011.1hPa Calm   3.0mph /  4.8km/h 77% 0.00in /  0mm 0.0 W/m2
19:46 65.8 °F /  18.8 °C 59.5 °F /  15.3 °C 29.87in /  1011.4hPa Calm   1.0mph /  1.6km/h 80% 0.00in /  0mm 0.0 W/m2
19:51 65.8 °F /  18.8 °C 59.9 °F /  15.5 °C 29.87in /  1011.4hPa North 0.9mph /  1.4km/h 2.0mph /  3.2km/h 81% 0.00in /  0mm 0.0 W/m2
19:56 65.8 °F /  18.8 °C 59.2 °F /  15.1 °C 29.87in /  1011.4hPa North 2.9mph /  4.7km/h 3.0mph /  4.8km/h 79% 0.00in /  0mm 0.0 W/m2
20:01 65.8 °F /  18.8 °C 59.2 °F /  15.1 °C 29.87in /  1011.4hPa Calm   3.0mph /  4.8km/h 79% 0.00in /  0mm 0.0 W/m2
20:06 65.8 °F /  18.8 °C 58.8 °F /  14.9 °C 29.88in /  1011.7hPa Calm   4.0mph /  6.4km/h 78% 0.00in /  0mm 0.0 W/m2
20:11 66.0 °F /  18.9 °C 58.6 °F /  14.8 °C 29.88in /  1011.7hPa Calm   2.0mph /  3.2km/h 77% 0.00in /  0mm 0.0 W/m2
20:16 66.0 °F /  18.9 °C 58.3 °F /  14.6 °C 29.89in /  1012.1hPa NW 0.9mph /  1.4km/h 3.0mph /  4.8km/h 76% 0.00in /  0mm 0.0 W/m2
20:22 66.4 °F /  19.1 °C 58.3 °F /  14.6 °C 29.89in /  1012.1hPa Calm   1.0mph /  1.6km/h 75% 0.00in /  0mm 0.0 W/m2
20:27 66.4 °F /  19.1 °C 58.6 °F /  14.8 °C 29.90in /  1012.4hPa NNW 0.9mph /  1.4km/h 2.0mph /  3.2km/h 76% 0.00in /  0mm 0.0 W/m2
20:32 66.6 °F /  19.2 °C 58.1 °F /  14.5 °C 29.90in /  1012.4hPa NNW 2.0mph /  3.2km/h 3.0mph /  4.8km/h 74% 0.00in /  0mm 0.0 W/m2
20:37 66.7 °F /  19.3 °C 58.1 °F /  14.5 °C 29.90in /  1012.4hPa Calm   1.0mph /  1.6km/h 74% 0.00in /  0mm 0.0 W/m2
20:42 66.7 °F /  19.3 °C 58.1 °F /  14.5 °C 29.90in /  1012.4hPa NNW 0.9mph /  1.4km/h 2.0mph /  3.2km/h 74% 0.00in /  0mm 0.0 W/m2
20:47 66.9 °F /  19.4 °C 57.2 °F /  14 °C 29.91in /  1012.8hPa NNW 0.9mph /  1.4km/h 4.0mph /  6.4km/h 71% 0.00in /  0mm 0.0 W/m2
20:53 67.3 °F /  19.6 °C 57.6 °F /  14.2 °C 29.91in /  1012.8hPa North 2.9mph /  4.7km/h 3.0mph /  4.8km/h 71% 0.00in /  0mm 0.0 W/m2
20:58 67.3 °F /  19.6 °C 57.6 °F /  14.2 °C 29.91in /  1012.8hPa NNW 2.9mph /  4.7km/h 6.0mph /  9.7km/h 71% 0.00in /  0mm 0.0 W/m2
21:03 67.5 °F /  19.7 °C 57.4 °F /  14.1 °C 29.91in /  1012.8hPa NNW 0.9mph /  1.4km/h 4.0mph /  6.4km/h 70% 0.00in /  0mm 0.0 W/m2
21:08 67.5 °F /  19.7 °C 57.0 °F /  13.9 °C 29.91in /  1012.8hPa NNW 2.9mph /  4.7km/h 5.0mph /  8km/h 69% 0.00in /  0mm 0.0 W/m2
21:14 67.5 °F /  19.7 °C 57.4 °F /  14.1 °C 29.91in /  1012.8hPa Calm   6.0mph /  9.7km/h 70% 0.00in /  0mm 0.0 W/m2
21:19 67.3 °F /  19.6 °C 57.2 °F /  14 °C 29.91in /  1012.8hPa Calm   6.0mph /  9.7km/h 70% 0.00in /  0mm 0.0 W/m2
21:24 67.1 °F /  19.5 °C 57.0 °F /  13.9 °C 29.91in /  1012.8hPa NNW 0.9mph /  1.4km/h 1.0mph /  1.6km/h 70% 0.00in /  0mm 0.0 W/m2
21:30 66.9 °F /  19.4 °C 56.8 °F /  13.8 °C 29.91in /  1012.8hPa Calm   4.0mph /  6.4km/h 70% 0.00in /  0mm 0.0 W/m2
21:35 66.7 °F /  19.3 °C 56.7 °F /  13.7 °C 29.91in /  1012.8hPa Calm   4.0mph /  6.4km/h 70% 0.00in /  0mm 0.0 W/m2
21:40 66.6 °F /  19.2 °C 56.5 °F /  13.6 °C 29.92in /  1013.1hPa Calm   1.0mph /  1.6km/h 70% 0.00in /  0mm 0.0 W/m2
21:45 66.6 °F /  19.2 °C 57.2 °F /  14 °C 29.92in /  1013.1hPa Calm     72% 0.00in /  0mm 0.0 W/m2
21:50 66.4 °F /  19.1 °C 56.7 °F /  13.7 °C 29.92in /  1013.1hPa Calm     71% 0.00in /  0mm 0.0 W/m2
21:56 66.0 °F /  18.9 °C 56.3 °F /  13.5 °C 29.92in /  1013.1hPa Calm     71% 0.00in /  0mm 0.0 W/m2
22:01 65.8 °F /  18.8 °C 56.1 °F /  13.4 °C 29.92in /  1013.1hPa Calm   2.0mph /  3.2km/h 71% 0.00in /  0mm 0.0 W/m2
22:07 65.7 °F /  18.7 °C 56.3 °F /  13.5 °C 29.92in /  1013.1hPa Calm     72% 0.00in /  0mm 0.0 W/m2
22:12 65.7 °F /  18.7 °C 56.3 °F /  13.5 °C 29.92in /  1013.1hPa Calm     72% 0.00in /  0mm 0.0 W/m2
22:18 65.5 °F /  18.6 °C 56.7 °F /  13.7 °C 29.92in /  1013.1hPa Calm     73% 0.00in /  0mm 0.0 W/m2
22:23 65.1 °F /  18.4 °C 57.0 °F /  13.9 °C 29.92in /  1013.1hPa Calm     75% 0.00in /  0mm 0.0 W/m2
22:28 64.9 °F /  18.3 °C 57.2 °F /  14 °C 29.92in /  1013.1hPa Calm     76% 0.00in /  0mm 0.0 W/m2
22:33 64.9 °F /  18.3 °C 57.2 °F /  14 °C 29.93in /  1013.4hPa Calm     76% 0.00in /  0mm 0.0 W/m2
22:38 64.8 °F /  18.2 °C 57.4 °F /  14.1 °C 29.93in /  1013.4hPa Calm     77% 0.00in /  0mm 0.0 W/m2
22:43 64.6 °F /  18.1 °C 57.6 °F /  14.2 °C 29.93in /  1013.4hPa Calm     78% 0.00in /  0mm 0.0 W/m2
22:49 64.2 °F /  17.9 °C 57.2 °F /  14 °C 29.93in /  1013.4hPa Calm     78% 0.00in /  0mm 0.0 W/m2
22:54 64.0 °F /  17.8 °C 57.4 °F /  14.1 °C 29.93in /  1013.4hPa Calm   1.0mph /  1.6km/h 79% 0.00in /  0mm 0.0 W/m2
22:59 64.0 °F /  17.8 °C 58.1 °F /  14.5 °C 29.93in /  1013.4hPa SE 0.9mph /  1.4km/h 1.0mph /  1.6km/h 81% 0.00in /  0mm 0.0 W/m2
23:04 63.9 °F /  17.7 °C 57.6 °F /  14.2 °C 29.94in /  1013.8hPa East 0.9mph /  1.4km/h 4.0mph /  6.4km/h 80% 0.00in /  0mm 0.0 W/m2
23:09 63.9 °F /  17.7 °C 57.2 °F /  14 °C 29.95in /  1014.1hPa SE 4.0mph /  6.4km/h 4.0mph /  6.4km/h 79% 0.00in /  0mm 0.0 W/m2
23:15 64.0 °F /  17.8 °C 57.4 °F /  14.1 °C 29.95in /  1014.1hPa ENE 2.9mph /  4.7km/h 6.0mph /  9.7km/h 79% 0.00in /  0mm 0.0 W/m2
23:20 64.2 °F /  17.9 °C 57.6 °F /  14.2 °C 29.95in /  1014.1hPa Calm   3.0mph /  4.8km/h 79% 0.00in /  0mm 0.0 W/m2
23:25 64.4 °F /  18 °C 57.4 °F /  14.1 °C 29.95in /  1014.1hPa Calm   2.0mph /  3.2km/h 78% 0.00in /  0mm 0.0 W/m2
23:30 64.6 °F /  18.1 °C 57.6 °F /  14.2 °C 29.95in /  1014.1hPa East 0.9mph /  1.4km/h 1.0mph /  1.6km/h 78% 0.00in /  0mm 0.0 W/m2
23:35 64.8 °F /  18.2 °C 57.4 °F /  14.1 °C 29.95in /  1014.1hPa East 2.9mph /  4.7km/h 5.0mph /  8km/h 77% 0.00in /  0mm 0.0 W/m2
23:40 64.9 °F /  18.3 °C 56.5 °F /  13.6 °C 29.95in /  1014.1hPa ESE 2.9mph /  4.7km/h 6.0mph /  9.7km/h 74% 0.00in /  0mm 0.0 W/m2
23:45 65.5 °F /  18.6 °C 56.7 °F /  13.7 °C 29.95in /  1014.1hPa ESE 2.0mph /  3.2km/h 6.0mph /  9.7km/h 73% 0.00in /  0mm 0.0 W/m2
23:50 66.0 °F /  18.9 °C 56.3 °F /  13.5 °C 29.94in /  1013.8hPa Calm   2.0mph /  3.2km/h 71% 0.00in /  0mm 0.0 W/m2
23:55 66.2 °F /  19 °C 56.1 °F /  13.4 °C 29.94in /  1013.8hPa East 0.9mph /  1.4km/h 3.0mph /  4.8km/h 70% 0.00in /  0mm 0.0 W/m2
Olympia, Windhoek, Namibia
Compliments of Weather Underground - 3.25 mb